Time;durP1;ratioP1;P1;durP2;ratioP2;P2;SDS_P1;SDS_P2;PMS_P1;PMS_P2;Temp;Humidity;BMP_temperature;BMP_pressure;BME280_temperature;BME280_humidity;BME280_pressure;Samples;Min_cycle;Max_cycle;Signal;HPM_P1;HPM_P2
2022/03/05 00:02:17;;;;;;;4.82;2.42;;;;;;;2.70;56.98;99160.28;5031112;28;20044;-40
2022/03/05 00:04:44;;;;;;;9.25;2.53;;;;;;;2.69;56.99;99166.25;5033347;28;20071;-40
2022/03/05 00:07:11;;;;;;;7.15;1.95;;;;;;;2.68;57.30;99155.16;5032255;28;20072;-39
2022/03/05 00:09:37;;;;;;;4.05;1.70;;;;;;;2.70;57.42;99155.13;5032936;28;20041;-40
2022/03/05 00:12:03;;;;;;;5.40;2.33;;;;;;;2.69;57.43;99159.41;5030717;28;20045;-40
2022/03/05 00:14:29;;;;;;;4.57;2.22;;;;;;;2.70;57.72;99158.56;5032596;28;20045;-41
2022/03/05 00:16:55;;;;;;;5.53;2.25;;;;;;;2.72;58.05;99156.81;5030847;28;20037;-40
2022/03/05 00:19:21;;;;;;;4.78;2.30;;;;;;;2.71;57.99;99155.13;5030680;28;20037;-41
2022/03/05 00:21:47;;;;;;;6.72;2.60;;;;;;;2.73;58.12;99158.50;5031835;28;20541;-41
2022/03/05 00:24:12;;;;;;;5.47;2.60;;;;;;;2.73;58.36;99148.25;5030713;28;20049;-41
2022/03/05 00:26:38;;;;;;;5.72;2.25;;;;;;;2.76;58.37;99153.34;5026364;28;20057;-41
2022/03/05 00:29:04;;;;;;;8.02;2.28;;;;;;;2.77;58.52;99151.66;5029986;28;20037;-40
2022/03/05 00:31:30;;;;;;;4.13;2.05;;;;;;;2.77;59.16;99151.66;5033263;28;20053;-41
2022/03/05 00:33:55;;;;;;;6.20;2.42;;;;;;;2.76;59.09;99152.50;5032961;28;20045;-40
2022/03/05 00:36:22;;;;;;;5.13;2.35;;;;;;;2.78;59.37;99150.75;5030209;28;20421;-39
2022/03/05 00:38:47;;;;;;;4.85;2.20;;;;;;;2.77;59.31;99155.06;5031669;28;20049;-40
2022/03/05 00:41:13;;;;;;;4.18;2.08;;;;;;;2.77;59.92;99144.78;5029886;28;20045;-41
2022/03/05 00:43:39;;;;;;;6.22;2.42;;;;;;;2.77;59.84;99149.06;5031868;28;20064;-40
2022/03/05 00:46:06;;;;;;;3.67;1.92;;;;;;;2.76;59.96;99155.06;5028744;28;20072;-40
2022/03/05 00:48:32;;;;;;;5.18;2.28;;;;;;;2.75;60.33;99161.06;5029565;28;20041;-39
2022/03/05 00:50:58;;;;;;;6.95;2.03;;;;;;;2.73;60.42;99158.50;5032266;28;20041;-40
2022/03/05 00:53:24;;;;;;;5.53;2.15;;;;;;;2.74;60.43;99167.06;5032140;28;20132;-39
2022/03/05 00:55:49;;;;;;;5.60;2.30;;;;;;;2.74;61.12;99162.78;5032561;28;20500;-40
2022/03/05 00:58:15;;;;;;;4.95;2.28;;;;;;;2.74;61.17;99165.34;5033155;28;20041;-40
2022/03/05 01:00:41;;;;;;;4.53;2.60;;;;;;;2.73;61.02;99162.78;5029972;28;20041;-40
2022/03/05 01:03:07;;;;;;;6.00;2.22;;;;;;;2.75;61.20;99172.19;5031504;28;20374;-40
2022/03/05 01:05:33;;;;;;;8.70;2.60;;;;;;;2.71;61.28;99162.84;5030216;28;20045;-40
2022/03/05 01:07:58;;;;;;;4.03;2.20;;;;;;;2.64;61.62;99152.63;5031608;28;20049;-40
2022/03/05 01:10:24;;;;;;;4.43;2.55;;;;;;;2.73;61.70;99167.91;5030583;28;20509;-40
2022/03/05 01:12:50;;;;;;;3.67;1.92;;;;;;;2.70;61.80;99168.81;5031444;28;20095;-40
2022/03/05 01:15:16;;;;;;;5.43;2.42;;;;;;;2.59;61.65;99147.56;5030263;28;20566;-40
2022/03/05 01:17:42;;;;;;;4.82;2.40;;;;;;;2.66;61.91;99159.47;5029052;28;20504;-39
2022/03/05 01:20:08;;;;;;;3.92;2.28;;;;;;;2.66;61.50;99156.03;5028604;28;20041;-40
2022/03/05 01:22:34;;;;;;;4.00;2.03;;;;;;;2.66;61.65;99161.19;5030611;28;20171;-40
2022/03/05 01:24:59;;;;;;;4.28;2.08;;;;;;;2.56;61.70;99140.72;5032108;28;20604;-40
2022/03/05 01:27:25;;;;;;;6.93;2.20;;;;;;;2.57;61.75;99141.59;5030322;28;20045;-40
2022/03/05 01:29:51;;;;;;;5.25;2.03;;;;;;;2.68;61.58;99159.44;5031915;28;20069;-39
2022/03/05 01:32:16;;;;;;;4.25;2.03;;;;;;;2.70;61.34;99156.00;5029771;28;20119;-40
2022/03/05 01:34:42;;;;;;;4.97;2.00;;;;;;;2.72;61.45;99156.81;5031928;28;20041;-39
2022/03/05 01:37:08;;;;;;;4.47;2.22;;;;;;;2.69;61.61;99151.72;5031770;28;20045;-40
2022/03/05 01:39:34;;;;;;;3.25;1.77;;;;;;;2.70;61.68;99152.56;5031851;28;20150;-39
2022/03/05 01:42:01;;;;;;;4.43;2.30;;;;;;;2.63;61.59;99144.09;5029127;28;20491;-41
2022/03/05 01:44:27;;;;;;;4.95;2.10;;;;;;;2.64;61.72;99139.81;5030718;28;20488;-40
2022/03/05 01:46:53;;;;;;;3.22;1.83;;;;;;;2.65;61.71;99150.06;5028988;28;20128;-39
2022/03/05 01:49:19;;;;;;;6.57;1.75;;;;;;;2.66;61.42;99149.19;5030498;28;20045;-39
2022/03/05 01:51:45;;;;;;;3.17;1.73;;;;;;;2.68;61.11;99159.44;5027874;28;20432;-40
2022/03/05 01:54:12;;;;;;;3.13;1.80;;;;;;;2.68;61.29;99151.72;5028132;28;20049;-39
2022/03/05 01:56:38;;;;;;;3.95;1.98;;;;;;;2.69;61.16;99158.56;5036140;28;20041;-40
2022/03/05 01:59:04;;;;;;;3.35;1.70;;;;;;;2.72;60.66;99155.97;5031504;28;20037;-40
2022/03/05 02:01:30;;;;;;;2.97;1.60;;;;;;;2.73;60.67;99155.09;5030037;28;20055;-41
2022/03/05 02:03:56;;;;;;;2.40;1.40;;;;;;;2.74;60.45;99161.94;5026868;28;20503;-39
2022/03/05 02:06:23;;;;;;;4.22;1.40;;;;;;;2.64;60.12;99147.50;5031154;28;20064;-40
2022/03/05 02:08:49;;;;;;;5.28;1.70;;;;;;;2.73;60.01;99160.22;5031138;28;20501;-39
2022/03/05 02:11:15;;;;;;;2.83;1.55;;;;;;;2.66;60.02;99151.78;5029544;28;20052;-39
2022/03/05 02:13:43;;;;;;;3.22;1.50;;;;;;;2.72;59.94;99156.81;5029351;28;20501;-40
2022/03/05 02:16:10;;;;;;;4.07;1.87;;;;;;;2.73;59.73;99158.50;5029436;28;20095;-40
2022/03/05 02:18:36;;;;;;;1.70;1.20;;;;;;;2.73;59.58;99163.63;5027914;28;20124;-40
2022/03/05 02:21:02;;;;;;;2.15;1.38;;;;;;;2.75;59.24;99166.19;5031011;28;20144;-41
2022/03/05 02:23:27;;;;;;;3.10;1.45;;;;;;;2.74;59.05;99170.47;5029729;28;20149;-41
2022/03/05 02:26:01;;;;;;;2.13;1.17;;;;;;;2.72;58.92;99168.81;5028221;28;20512;-40
2022/03/05 02:28:27;;;;;;;2.67;1.58;;;;;;;2.70;58.58;99167.97;5029784;28;20037;-41
2022/03/05 02:30:54;;;;;;;4.45;1.38;;;;;;;2.69;58.53;99169.69;5042872;28;20076;-40
2022/03/05 02:33:20;;;;;;;2.75;1.50;;;;;;;2.53;58.65;99143.34;5023644;28;20037;-40
2022/03/05 02:35:46;;;;;;;5.70;1.42;;;;;;;2.72;58.35;99173.94;5030034;28;20045;-40
2022/03/05 02:38:14;;;;;;;4.43;1.38;;;;;;;2.68;57.95;99160.28;5029786;28;20045;-41
2022/03/05 02:40:41;;;;;;;2.03;1.20;;;;;;;2.68;57.64;99167.97;5029705;28;20748;-40
2022/03/05 02:43:07;;;;;;;6.28;1.13;;;;;;;2.65;57.18;99172.31;5045123;28;20053;-40
2022/03/05 02:45:33;;;;;;;2.20;1.17;;;;;;;2.63;57.22;99174.03;5027236;28;20041;-40
2022/03/05 02:48:02;;;;;;;1.80;1.10;;;;;;;2.65;57.01;99180.00;5028653;28;20045;-39
2022/03/05 02:50:28;;;;;;;4.75;1.00;;;;;;;2.64;56.33;99176.59;5029308;28;20037;-40
2022/03/05 02:52:53;;;;;;;6.18;1.00;;;;;;;2.62;56.11;99174.91;5028453;28;20048;-40
2022/03/05 02:55:20;;;;;;;2.92;1.20;;;;;;;2.59;55.91;99174.94;5030448;28;20055;-40
2022/03/05 02:57:45;;;;;;;2.03;0.98;;;;;;;2.59;56.04;99180.06;5029311;28;20420;-40
2022/03/05 03:00:12;;;;;;;1.65;0.85;;;;;;;2.62;55.77;99174.91;5029969;28;20045;-40
2022/03/05 03:02:38;;;;;;;3.40;1.10;;;;;;;2.48;55.18;99157.94;5028053;28;20037;-40
2022/03/05 03:05:05;;;;;;;3.55;0.95;;;;;;;2.56;54.80;99171.53;5026483;28;20045;-40
2022/03/05 03:07:31;;;;;;;5.47;1.25;;;;;;;2.63;55.13;99187.72;5024992;28;20068;-41
2022/03/05 03:09:58;;;;;;;5.60;1.40;;;;;;;2.53;55.73;99174.13;5030986;28;20045;-41
2022/03/05 03:12:25;;;;;;;5.07;1.83;;;;;;;2.59;56.94;99178.34;5026720;28;20045;-39
2022/03/05 03:14:51;;;;;;;3.65;1.73;;;;;;;2.58;57.78;99184.34;5029553;28;20102;-39
2022/03/05 03:17:17;;;;;;;3.75;1.20;;;;;;;2.55;58.51;99184.38;5026995;28;20033;-41
2022/03/05 03:19:43;;;;;;;4.45;1.33;;;;;;;2.53;58.94;99191.25;5028906;28;20045;-40
2022/03/05 03:22:08;;;;;;;3.55;1.40;;;;;;;2.48;59.38;99196.41;5028214;28;20056;-40
2022/03/05 03:24:34;;;;;;;4.25;1.25;;;;;;;2.46;59.01;99193.00;5024548;28;20041;-40
2022/03/05 03:27:00;;;;;;;2.50;1.35;;;;;;;2.43;59.41;99198.19;5028684;28;20473;-39
2022/03/05 03:29:26;;;;;;;4.45;1.33;;;;;;;2.43;59.47;99203.31;5030647;28;20045;-40
2022/03/05 03:31:53;;;;;;;3.67;1.35;;;;;;;2.33;59.68;99186.31;5028064;28;20033;-40
2022/03/05 03:34:18;;;;;;;2.15;1.10;;;;;;;2.40;59.59;99207.63;5027450;28;20409;-41
2022/03/05 03:36:45;;;;;;;2.30;1.38;;;;;;;2.38;58.98;99209.34;5028092;28;20542;-39
2022/03/05 03:39:11;;;;;;;4.05;1.30;;;;;;;2.38;59.22;99210.19;5028728;28;20038;-40
2022/03/05 03:41:36;;;;;;;3.10;1.20;;;;;;;2.35;59.03;99201.69;5027902;28;20451;-40
2022/03/05 03:44:03;;;;;;;3.17;1.10;;;;;;;2.34;59.22;99212.81;5028841;28;20572;-40
2022/03/05 03:46:29;;;;;;;3.03;1.20;;;;;;;2.28;58.96;99208.59;5028897;28;20116;-39
2022/03/05 03:48:54;;;;;;;3.65;1.48;;;;;;;2.30;58.83;99216.28;5028908;28;20045;-40
2022/03/05 03:51:20;;;;;;;4.93;1.23;;;;;;;2.28;58.54;99216.28;5026968;28;20076;-41
2022/03/05 03:53:46;;;;;;;5.10;1.40;;;;;;;2.27;58.57;99221.41;5029898;28;20253;-39
2022/03/05 03:56:13;;;;;;;4.43;1.30;;;;;;;2.28;58.46;99231.66;5029176;28;20125;-39
2022/03/05 03:58:38;;;;;;;2.45;1.00;;;;;;;2.26;58.22;99223.13;5030438;28;20045;-40
2022/03/05 04:01:04;;;;;;;2.58;1.10;;;;;;;2.27;58.19;99229.97;5026573;28;20033;-40
2022/03/05 04:03:31;;;;;;;2.42;1.15;;;;;;;2.28;57.69;99233.38;5029447;28;20106;-40
2022/03/05 04:05:57;;;;;;;3.08;1.17;;;;;;;2.21;57.41;99230.00;5027073;28;20061;-40
2022/03/05 04:11:08;;;;;;;2.58;1.10;;;;;;;2.19;57.05;99224.06;5028283;28;20099;-40
2022/03/05 04:13:34;;;;;;;5.78;1.35;;;;;;;2.06;56.82;99214.75;5012432;28;20056;-41
2022/03/05 04:16:00;;;;;;;12.35;1.75;;;;;;;2.08;56.61;99228.41;5029707;28;20037;-40
2022/03/05 04:18:26;;;;;;;5.00;1.00;;;;;;;2.08;56.28;99238.66;5031919;28;20041;-40
2022/03/05 04:20:51;;;;;;;2.08;1.15;;;;;;;2.11;55.91;99228.38;5031773;28;20051;-41
2022/03/05 04:23:17;;;;;;;1.20;0.90;;;;;;;2.09;55.86;99238.63;5030354;28;20045;-41
2022/03/05 04:25:43;;;;;;;2.30;1.00;;;;;;;2.09;55.57;99237.81;5032303;28;20896;-41
2022/03/05 04:28:10;;;;;;;1.42;1.00;;;;;;;2.09;55.66;99250.63;5032644;28;20037;-41
2022/03/05 04:30:36;;;;;;;1.85;1.27;;;;;;;2.11;55.94;99248.88;5031510;28;20512;-40
2022/03/05 04:33:02;;;;;;;5.05;1.00;;;;;;;2.13;55.54;99252.31;5030060;28;20052;-40
2022/03/05 04:35:27;;;;;;;2.90;1.20;;;;;;;2.11;55.86;99256.56;5032686;28;20041;-41
2022/03/05 04:37:53;;;;;;;4.00;1.25;;;;;;;2.10;55.69;99254.88;5031953;28;20049;-41
2022/03/05 04:40:19;;;;;;;1.73;1.13;;;;;;;2.10;55.67;99260.00;5032240;28;20041;-40
2022/03/05 04:42:46;;;;;;;5.38;1.08;;;;;;;2.07;55.77;99263.44;5031557;28;20505;-41
2022/03/05 04:45:12;;;;;;;2.05;1.02;;;;;;;2.04;55.49;99260.06;5033134;28;20040;-40
2022/03/05 04:47:38;;;;;;;6.60;1.55;;;;;;;2.03;55.73;99261.78;5031152;28;20056;-39
2022/03/05 04:50:05;;;;;;;2.97;1.00;;;;;;;2.05;55.80;99265.16;5032429;28;20033;-41
2022/03/05 04:52:31;;;;;;;3.88;1.35;;;;;;;1.99;55.43;99267.75;5030776;28;20382;-40
2022/03/05 04:54:56;;;;;;;3.20;1.52;;;;;;;2.00;55.93;99271.19;5029403;28;20041;-40
2022/03/05 04:57:22;;;;;;;3.08;1.70;;;;;;;1.89;55.78;99253.31;5030328;28;20052;-40
2022/03/05 04:59:48;;;;;;;8.38;2.42;;;;;;;2.04;55.74;99281.41;5029139;28;20038;-41
2022/03/05 05:02:14;;;;;;;6.43;2.28;;;;;;;2.04;55.78;99275.44;5030322;28;20049;-40
2022/03/05 05:04:40;;;;;;;4.45;2.00;;;;;;;2.02;55.96;99275.44;5032310;28;20527;-40
2022/03/05 05:07:05;;;;;;;4.07;1.83;;;;;;;2.03;56.04;99277.16;5029865;28;20107;-40
2022/03/05 05:09:31;;;;;;;2.63;1.60;;;;;;;2.03;56.21;99272.03;5029470;28;20033;-40
2022/03/05 05:11:57;;;;;;;9.18;1.80;;;;;;;2.03;56.28;99278.88;5028841;28;20041;-40
2022/03/05 05:14:23;;;;;;;10.02;1.70;;;;;;;1.89;56.05;99245.63;5030236;28;20047;-41
2022/03/05 05:16:48;;;;;;;4.32;1.60;;;;;;;2.01;56.18;99268.63;5031230;28;20037;-41
2022/03/05 05:19:29;;;;;;;3.50;1.40;;;;;;;2.12;56.06;99287.34;5028092;28;20516;-42
2022/03/05 05:22:03;;;;;;;4.68;1.90;;;;;;;2.11;56.24;99283.06;5025504;28;20037;-40
2022/03/05 05:24:31;;;;;;;3.33;1.30;;;;;;;2.19;56.21;99284.75;5025425;28;20037;-41
2022/03/05 05:26:57;;;;;;;5.20;1.55;;;;;;;2.15;56.31;99288.19;5025680;28;20041;-40
2022/03/05 05:29:23;;;;;;;6.53;1.55;;;;;;;2.18;56.30;99303.53;5020713;28;20045;-41
2022/03/05 05:31:50;;;;;;;3.65;1.50;;;;;;;2.13;56.54;99306.16;5024408;28;20046;-40
2022/03/05 05:34:16;;;;;;;7.50;1.55;;;;;;;2.17;56.17;99297.56;5024412;28;20084;-41
2022/03/05 05:36:42;;;;;;;3.22;1.50;;;;;;;2.20;56.20;99301.84;5040647;28;20129;-42
2022/03/05 05:39:10;;;;;;;2.33;1.40;;;;;;;2.22;56.10;99307.78;5024194;28;20113;-42
2022/03/05 05:41:37;;;;;;;3.85;1.60;;;;;;;2.24;55.70;99303.50;5009180;28;20045;-39
2022/03/05 05:44:04;;;;;;;5.90;2.22;;;;;;;2.34;56.46;99311.13;5013007;28;20125;-41
2022/03/05 05:46:30;;;;;;;3.92;1.60;;;;;;;2.38;55.79;99312.81;5019218;28;20056;-42
2022/03/05 05:48:56;;;;;;;3.42;1.40;;;;;;;2.38;55.87;99305.09;5041511;28;20041;-46
2022/03/05 05:51:23;;;;;;;5.53;1.60;;;;;;;2.45;56.11;99301.63;5023985;28;20049;-51
2022/03/05 05:53:49;;;;;;;3.35;1.30;;;;;;;2.49;55.66;99305.88;5025769;28;20042;-52
2022/03/05 05:56:15;;;;;;;3.10;1.63;;;;;;;2.50;55.41;99302.44;5026933;28;20520;-48
2022/03/05 05:58:43;;;;;;;4.75;2.00;;;;;;;2.54;55.65;99308.41;5031988;28;20115;-49
2022/03/05 06:01:08;;;;;;;5.28;2.40;;;;;;;2.57;55.50;99303.22;5027869;28;20569;-48
2022/03/05 06:03:34;;;;;;;3.83;1.75;;;;;;;2.56;55.38;99306.69;5027486;28;20060;-46
2022/03/05 06:06:00;;;;;;;5.45;1.73;;;;;;;2.49;55.18;99308.44;5025657;28;20053;-48
2022/03/05 06:08:26;;;;;;;5.18;1.92;;;;;;;2.58;55.15;99325.47;5025765;28;20107;-47
2022/03/05 06:10:54;;;;;;;5.03;1.70;;;;;;;2.66;55.04;99313.44;5028661;28;20056;-49
2022/03/05 06:13:20;;;;;;;4.20;1.50;;;;;;;2.69;54.75;99312.53;5009209;28;20462;-48
2022/03/05 06:15:46;;;;;;;6.55;1.90;;;;;;;2.70;54.65;99302.28;5031308;28;20041;-47
2022/03/05 06:18:12;;;;;;;4.25;2.28;;;;;;;2.86;54.45;99311.53;5026903;28;20049;-48
2022/03/05 06:20:38;;;;;;;6.45;2.30;;;;;;;2.82;54.60;99317.56;5023641;28;20055;-45
2022/03/05 06:23:04;;;;;;;4.05;1.75;;;;;;;2.82;54.50;99304.75;5023959;28;20170;-51
2022/03/05 06:25:30;;;;;;;6.30;2.05;;;;;;;2.92;54.36;99308.06;5024137;28;21758;-49
2022/03/05 06:27:56;;;;;;;4.70;2.72;;;;;;;2.89;54.49;99298.66;5022396;28;20041;-48
2022/03/05 06:30:22;;;;;;;6.32;2.05;;;;;;;3.15;54.11;99312.94;5027163;28;20033;-47
2022/03/05 06:32:49;;;;;;;5.32;1.80;;;;;;;3.30;53.54;99310.22;5030997;28;20504;-46
2022/03/05 06:35:15;;;;;;;4.25;1.92;;;;;;;3.40;53.58;99310.09;5029254;28;20033;-49
2022/03/05 06:37:41;;;;;;;4.90;1.83;;;;;;;3.36;52.92;99318.72;5028673;28;20045;-47
2022/03/05 06:40:07;;;;;;;5.45;2.15;;;;;;;3.32;53.16;99308.50;5012077;28;20405;-46
2022/03/05 06:42:33;;;;;;;5.90;2.28;;;;;;;3.57;52.46;99319.31;5029131;28;20617;-47
2022/03/05 06:44:58;;;;;;;4.70;2.28;;;;;;;3.74;52.30;99322.53;5033088;28;20032;-45
2022/03/05 06:47:24;;;;;;;7.95;2.10;;;;;;;3.74;52.19;99332.84;5029751;28;20504;-46
2022/03/05 06:49:50;;;;;;;4.65;2.38;;;;;;;4.26;51.66;99323.53;5044537;28;20037;-45
2022/03/05 06:52:16;;;;;;;6.25;2.40;;;;;;;4.51;50.36;99320.56;5061401;28;20099;-47
2022/03/05 06:54:42;;;;;;;6.50;2.00;;;;;;;4.39;50.17;99331.94;5026419;28;20060;-47
2022/03/05 06:57:08;;;;;;;5.03;2.20;;;;;;;4.15;50.20;99327.13;5029330;28;20505;-46
2022/03/05 06:59:33;;;;;;;5.53;1.70;;;;;;;4.56;49.67;99327.34;5028895;28;20049;-49
2022/03/05 07:01:59;;;;;;;8.88;2.05;;;;;;;4.79;49.34;99326.13;5027140;28;20052;-47
2022/03/05 07:04:25;;;;;;;3.90;1.83;;;;;;;5.13;49.01;99321.25;5029774;28;20045;-47
2022/03/05 07:06:51;;;;;;;4.28;1.75;;;;;;;5.27;48.06;99321.84;5026276;28;20084;-46
2022/03/05 07:09:17;;;;;;;6.32;2.00;;;;;;;5.25;48.07;99321.00;5029581;28;20057;-45
2022/03/05 07:11:42;;;;;;;10.10;1.92;;;;;;;5.29;47.91;99332.94;5028041;28;20041;-46
2022/03/05 07:14:08;;;;;;;4.65;2.22;;;;;;;5.43;47.18;99318.09;5029256;28;20163;-47
2022/03/05 07:16:34;;;;;;;8.18;2.20;;;;;;;5.84;46.75;99330.16;5044607;28;20508;-47
2022/03/05 07:19:00;;;;;;;4.28;1.83;;;;;;;5.84;46.71;99335.31;5027862;28;20037;-48
2022/03/05 07:21:25;;;;;;;10.90;2.83;;;;;;;5.87;45.94;99330.97;5028546;28;20045;-47
2022/03/05 07:23:51;;;;;;;5.65;2.50;;;;;;;5.89;45.97;99339.53;5027767;28;20116;-50
2022/03/05 07:26:17;;;;;;;9.10;2.17;;;;;;;5.80;45.53;99324.22;5029116;28;20053;-50
2022/03/05 07:28:46;;;;;;;3.78;1.27;;;;;;;5.85;45.36;99337.00;5028711;28;20029;-47
2022/03/05 07:31:12;;;;;;;2.95;1.70;;;;;;;5.83;45.39;99333.59;5028244;28;20427;-45
2022/03/05 07:33:37;;;;;;;10.80;1.85;;;;;;;5.80;45.06;99339.69;5028551;28;20623;-48
2022/03/05 07:36:04;;;;;;;9.05;1.90;;;;;;;5.94;44.98;99344.59;5028552;28;20057;-50
2022/03/05 07:38:33;;;;;;;4.05;1.67;;;;;;;6.68;43.39;99332.56;5028179;28;20505;-46
2022/03/05 07:40:59;;;;;;;7.05;1.73;;;;;;;7.08;42.81;99337.56;5028180;28;20053;-46
2022/03/05 07:43:25;;;;;;;2.97;1.77;;;;;;;7.62;41.70;99335.25;5027285;28;20052;-47
2022/03/05 07:45:51;;;;;;;8.30;2.70;;;;;;;7.98;41.61;99338.53;5028616;28;20052;-48
2022/03/05 07:48:19;;;;;;;8.15;2.03;;;;;;;7.95;41.01;99340.38;5045951;28;20191;-48
2022/03/05 07:50:48;;;;;;;4.88;1.67;;;;;;;7.41;41.60;99338.44;5040091;28;20069;-49
2022/03/05 07:53:14;;;;;;;8.95;2.63;;;;;;;6.84;42.09;99343.38;5029724;28;20045;-48
2022/03/05 07:55:41;;;;;;;11.23;4.03;;;;;;;6.62;42.44;99340.44;5031701;28;20115;-47
2022/03/05 07:58:08;;;;;;;7.82;2.67;;;;;;;6.23;43.12;99339.63;5031132;28;20091;-50
2022/03/05 08:00:34;;;;;;;6.05;2.55;;;;;;;5.92;43.80;99339.44;5028111;28;20056;-50
2022/03/05 08:03:02;;;;;;;5.95;1.70;;;;;;;5.72;43.36;99326.09;5048505;28;20033;-48
2022/03/05 08:05:28;;;;;;;3.38;1.60;;;;;;;5.81;43.31;99325.88;5030795;28;20045;-46
2022/03/05 08:07:57;;;;;;;15.50;2.28;;;;;;;5.68;43.67;99332.19;5030863;28;20057;-51
2022/03/05 08:10:23;;;;;;;5.72;2.38;;;;;;;5.99;43.28;99327.28;5056559;28;20084;-47
2022/03/05 08:12:49;;;;;;;7.43;2.35;;;;;;;6.33;42.32;99330.78;5054765;28;20088;-48
2022/03/05 08:15:14;;;;;;;6.93;2.40;;;;;;;6.38;42.33;99343.63;5031738;28;20144;-45
2022/03/05 08:17:54;;;;;;;4.75;1.90;;;;;;;6.47;41.68;99339.97;5024710;28;20061;-47
2022/03/05 08:20:21;;;;;;;8.95;2.70;;;;;;;6.33;41.81;99345.47;5022764;28;20053;-44
2022/03/05 08:22:47;;;;;;;6.63;2.33;;;;;;;6.05;42.24;99340.06;5010743;28;20144;-46
2022/03/05 08:25:13;;;;;;;8.50;1.83;;;;;;;5.74;42.82;99344.13;5027300;28;20172;-45
2022/03/05 08:27:39;;;;;;;9.15;2.45;;;;;;;5.46;42.92;99351.53;5029418;28;20034;-48
2022/03/05 08:30:05;;;;;;;12.13;2.42;;;;;;;5.14;43.72;99352.13;5014330;28;20182;-47
2022/03/05 08:32:31;;;;;;;4.82;2.20;;;;;;;4.93;43.80;99355.94;5019078;28;20453;-45
2022/03/05 08:34:57;;;;;;;6.07;2.20;;;;;;;4.68;44.06;99339.19;5021612;28;20080;-47
2022/03/05 08:37:23;;;;;;;6.97;1.90;;;;;;;4.60;44.81;99359.91;5039906;28;20054;-47
2022/03/05 08:39:48;;;;;;;8.57;2.30;;;;;;;4.42;45.00;99364.47;5028962;28;20170;-47
2022/03/05 08:42:14;;;;;;;4.38;1.88;;;;;;;4.29;45.13;99335.53;5058616;28;20123;-47
2022/03/05 08:44:40;;;;;;;4.10;2.03;;;;;;;4.38;45.12;99362.81;5042265;28;20045;-45
2022/03/05 08:47:06;;;;;;;7.13;2.00;;;;;;;4.36;45.16;99362.84;5028561;28;20041;-45
2022/03/05 08:49:32;;;;;;;8.82;1.65;;;;;;;4.37;45.21;99371.41;5024970;28;20452;-47
2022/03/05 08:51:57;;;;;;;5.60;2.03;;;;;;;4.42;45.33;99364.47;5030673;28;20122;-49
2022/03/05 08:54:25;;;;;;;9.73;1.75;;;;;;;4.43;45.07;99366.19;5026334;28;20076;-49
2022/03/05 08:56:51;;;;;;;2.88;1.63;;;;;;;4.38;45.32;99368.81;5015019;28;20037;-46
2022/03/05 08:59:17;;;;;;;2.97;1.70;;;;;;;4.31;45.32;99356.91;5029258;28;20470;-44
2022/03/05 09:01:43;;;;;;;4.97;2.58;;;;;;;4.50;44.62;99345.47;5043615;28;20068;-47
2022/03/05 09:04:08;;;;;;;5.88;2.17;;;;;;;5.22;43.72;99365.75;5022462;28;20041;-45
2022/03/05 09:06:35;;;;;;;5.22;1.58;;;;;;;5.29;43.49;99341.53;5042973;28;20168;-49
2022/03/05 09:09:01;;;;;;;4.10;1.80;;;;;;;5.54;42.91;99360.84;5030869;28;20060;-45
2022/03/05 09:11:26;;;;;;;8.75;2.88;;;;;;;6.11;42.45;99355.41;5030280;28;20508;-47
2022/03/05 09:13:52;;;;;;;6.32;2.03;;;;;;;7.50;39.75;99370.94;5021968;28;20126;-46
2022/03/05 09:16:18;;;;;;;7.28;2.08;;;;;;;7.66;39.50;99370.50;5031119;28;20056;-47
2022/03/05 09:18:44;;;;;;;6.03;1.85;;;;;;;7.52;39.49;99372.63;5028526;28;20568;-50
2022/03/05 09:21:10;;;;;;;5.90;1.98;;;;;;;7.23;39.47;99375.94;5033810;28;20427;-45
2022/03/05 09:23:35;;;;;;;3.92;1.98;;;;;;;6.82;40.03;99386.47;5031366;28;20069;-47
2022/03/05 09:26:02;;;;;;;5.47;1.65;;;;;;;6.34;40.35;99363.47;5029823;28;20151;-46
2022/03/05 09:28:27;;;;;;;6.93;2.00;;;;;;;6.09;41.10;99377.81;5031656;28;20463;-46
2022/03/05 09:30:53;;;;;;;15.05;1.90;;;;;;;5.85;41.10;99386.03;5013733;28;20045;-48
2022/03/05 09:33:22;;;;;;;3.95;1.75;;;;;;;5.70;41.27;99384.59;5032020;28;20452;-47
2022/03/05 09:35:49;;;;;;;15.27;2.15;;;;;;;5.53;42.13;99389.22;5014171;28;20159;-49
2022/03/05 09:38:15;;;;;;;5.93;2.00;;;;;;;5.53;42.53;99382.34;5055214;28;20068;-47
2022/03/05 09:40:41;;;;;;;5.00;2.30;;;;;;;5.46;41.99;99387.63;5047557;28;20051;-46
2022/03/05 09:43:07;;;;;;;4.60;1.88;;;;;;;5.24;42.78;99387.16;5032301;28;20037;-47
2022/03/05 09:45:37;;;;;;;6.82;2.38;;;;;;;5.27;42.67;99384.56;5031727;28;20132;-48
2022/03/05 09:48:03;;;;;;;5.68;1.90;;;;;;;5.24;42.24;99399.19;5028099;28;20037;-48
2022/03/05 09:50:32;;;;;;;4.28;1.42;;;;;;;5.08;42.54;99396.88;5029669;28;20076;-45
2022/03/05 09:53:01;;;;;;;2.73;1.77;;;;;;;5.00;42.90;99403.91;5030397;28;20037;-51
2022/03/05 09:55:27;;;;;;;2.97;1.88;;;;;;;4.95;43.10;99404.84;5030336;28;20034;-52
2022/03/05 09:57:53;;;;;;;5.50;1.75;;;;;;;4.87;43.33;99398.94;5031085;28;20461;-50
2022/03/05 10:00:19;;;;;;;5.18;1.75;;;;;;;4.70;43.40;99409.53;5031343;28;20042;-48
2022/03/05 10:02:48;;;;;;;4.72;2.83;;;;;;;4.65;43.81;99404.47;5031322;28;20512;-49
2022/03/05 10:05:28;;;;;;;5.13;1.85;;;;;;;4.62;44.34;99419.09;5031301;28;20044;-53
2022/03/05 10:08:01;;;;;;;7.00;2.20;;;;;;;4.61;44.45;99410.50;5029004;28;20083;-46
2022/03/05 10:10:30;;;;;;;3.90;2.03;;;;;;;4.58;44.23;99418.28;5031030;28;20034;-49
2022/03/05 10:12:56;;;;;;;6.72;1.83;;;;;;;4.53;44.48;99398.63;5028381;28;20088;-50
2022/03/05 10:15:21;;;;;;;10.93;2.10;;;;;;;4.62;45.01;99422.50;5013208;28;20512;-51
2022/03/05 10:17:54;;;;;;;3.53;1.75;;;;;;;4.54;44.83;99415.78;5031868;28;20044;-52
2022/03/05 10:20:26;;;;;;;8.63;1.85;;;;;;;4.52;44.89;99428.66;4997167;28;20037;-51
2022/03/05 10:23:05;;;;;;;7.78;2.75;;;;;;;4.43;45.18;99426.22;5031368;28;20042;-50
2022/03/05 10:25:39;;;;;;;7.05;3.08;;;;;;;4.40;45.26;99421.09;5030889;28;20049;-48
2022/03/05 10:28:07;;;;;;;6.25;2.70;;;;;;;4.35;45.57;99417.75;5046450;28;20098;-50
2022/03/05 10:30:43;;;;;;;4.50;2.25;;;;;;;4.29;45.27;99427.28;5028951;28;20040;-51
2022/03/05 10:33:32;;;;;;;7.80;2.70;;;;;;;4.28;46.12;99420.44;5029031;28;20049;-52
2022/03/05 10:36:00;;;;;;;11.30;2.55;;;;;;;4.21;46.36;99425.66;5042401;28;20033;-51
2022/03/05 10:39:04;;;;;;;8.18;2.20;;;;;;;4.22;46.44;99406.78;5029601;28;20425;-54
2022/03/05 10:41:34;;;;;;;7.68;2.38;;;;;;;4.41;46.29;99424.53;4990865;28;20042;-52
2022/03/05 10:44:05;;;;;;;5.43;2.15;;;;;;;4.74;45.90;99424.06;5005385;28;20448;-54
2022/03/05 10:46:40;;;;;;;10.63;2.40;;;;;;;5.32;44.96;99417.97;5028541;28;20037;-49
2022/03/05 10:49:22;;;;;;;6.65;2.28;;;;;;;5.86;44.35;99421.28;5027835;28;20065;-50
2022/03/05 10:51:50;;;;;;;7.78;1.80;;;;;;;6.37;42.56;99412.47;5029647;28;20068;-49
2022/03/05 10:54:41;;;;;;;6.90;2.00;;;;;;;6.71;42.35;99416.88;5027677;28;20037;-49
2022/03/05 10:57:22;;;;;;;8.30;2.33;;;;;;;6.93;41.38;99419.81;5028390;28;20445;-51
2022/03/05 10:59:53;;;;;;;5.60;1.95;;;;;;;7.08;41.23;99397.03;5029300;28;20056;-50
2022/03/05 11:02:20;;;;;;;6.10;2.10;;;;;;;7.29;40.80;99410.28;5054737;28;20037;-50
2022/03/05 11:04:47;;;;;;;5.00;1.80;;;;;;;7.42;40.87;99407.38;5029057;28;20037;-52
2022/03/05 11:07:18;;;;;;;7.63;2.20;;;;;;;7.41;40.78;99408.25;5028164;28;20137;-50
2022/03/05 11:09:44;;;;;;;2.95;1.80;;;;;;;7.32;41.08;99408.50;5023318;28;20453;-51
2022/03/05 11:12:20;;;;;;;8.63;1.92;;;;;;;7.32;40.86;99410.22;5027554;28;20059;-55
2022/03/05 11:14:47;;;;;;;7.55;2.00;;;;;;;7.41;40.61;99400.50;5028815;28;20049;-52
2022/03/05 11:17:13;;;;;;;4.85;2.33;;;;;;;7.54;40.30;99412.19;5027348;28;20033;-48
2022/03/05 11:19:39;;;;;;;3.28;1.90;;;;;;;7.68;40.13;99409.25;5027892;28;20045;-48
2022/03/05 11:22:06;;;;;;;5.55;2.20;;;;;;;7.79;39.75;99424.50;5043502;28;20049;-50
2022/03/05 11:24:32;;;;;;;12.45;2.15;;;;;;;7.59;39.16;99417.25;5045027;28;20041;-51
2022/03/05 11:26:57;;;;;;;7.38;2.10;;;;;;;7.39;40.02;99422.94;5030212;28;20052;-52
2022/03/05 11:29:28;;;;;;;4.13;1.83;;;;;;;7.00;40.39;99413.63;5033876;28;20057;-53
2022/03/05 11:32:10;;;;;;;4.80;1.73;;;;;;;6.64;40.94;99421.34;5029388;28;20041;-55
2022/03/05 11:34:44;;;;;;;7.53;1.90;;;;;;;6.25;40.79;99427.38;5034057;28;20054;-47
2022/03/05 11:37:26;;;;;;;8.63;1.95;;;;;;;5.89;41.28;99434.97;5029378;28;20052;-48
2022/03/05 11:39:53;;;;;;;9.20;1.83;;;;;;;5.49;41.84;99421.97;5036104;28;20191;-50
2022/03/05 11:42:34;;;;;;;5.15;2.35;;;;;;;5.29;42.68;99429.16;5039826;28;20101;-51
2022/03/05 11:45:01;;;;;;;3.30;1.80;;;;;;;5.08;42.74;99427.81;5035489;28;20087;-52